Time;durP1;ratioP1;P1;durP2;ratioP2;P2;SDS_P1;SDS_P2;PMS_P1;PMS_P2;Temp;Humidity;BMP_temperature;BMP_pressure;BME280_temperature;BME280_humidity;BME280_pressure;Samples;Min_cycle;Max_cycle;Signal;HPM_P1;HPM_P2
2022/08/10 00:01:03;;;;;;;8.15;7.47;;;;;;;23.31;50.86;100755.42;466680;112;922654;-76
2022/08/10 00:02:06;;;;;;;9.59;7.87;;;;;;;23.29;50.87;100750.97;450029;118;922586;-76
2022/08/10 00:03:09;;;;;;;8.57;7.64;;;;;;;23.28;50.88;100756.83;466906;113;922628;-75
2022/08/10 00:04:12;;;;;;;11.91;8.53;;;;;;;23.27;50.86;100755.16;449725;118;923099;-75
2022/08/10 00:05:17;;;;;;;10.36;8.18;;;;;;;23.27;50.87;100752.38;469477;111;922789;-76
2022/08/10 00:06:20;;;;;;;9.58;8.71;;;;;;;23.26;50.87;100750.75;466686;112;923296;-76
2022/08/10 00:07:23;;;;;;;8.76;8.07;;;;;;;23.26;50.91;100759.09;466716;113;922975;-76
2022/08/10 00:08:26;;;;;;;8.69;7.92;;;;;;;23.25;50.97;100754.65;466104;114;922964;-76
2022/08/10 00:09:29;;;;;;;8.66;7.88;;;;;;;23.26;51.00;100759.09;466036;114;922509;-76
2022/08/10 00:10:33;;;;;;;8.64;7.89;;;;;;;23.26;50.96;100750.75;465985;114;922713;-76
2022/08/10 00:11:36;;;;;;;8.80;7.76;;;;;;;23.27;50.94;100752.38;466000;114;930619;-76
2022/08/10 00:12:40;;;;;;;8.56;7.55;;;;;;;23.26;50.90;100759.09;466087;114;922785;-76
2022/08/10 00:13:44;;;;;;;9.19;8.07;;;;;;;23.25;50.92;100751.87;465415;114;922576;-76
2022/08/10 00:14:48;;;;;;;8.78;7.84;;;;;;;23.25;50.91;100758.27;468985;111;922675;-76
2022/08/10 00:15:51;;;;;;;9.54;8.68;;;;;;;23.25;50.90;100747.13;449743;118;922736;-76
2022/08/10 00:16:56;;;;;;;8.38;7.68;;;;;;;23.25;50.87;100755.48;466587;113;922891;-76
2022/08/10 00:17:59;;;;;;;7.93;7.21;;;;;;;23.24;50.84;100755.77;466856;113;923431;-76
2022/08/10 00:19:02;;;;;;;10.02;8.34;;;;;;;23.23;50.84;100754.94;466880;113;922937;-76
2022/08/10 00:20:06;;;;;;;8.41;7.66;;;;;;;23.23;50.82;100754.10;457948;116;923183;-75
2022/08/10 00:21:11;;;;;;;8.22;7.61;;;;;;;23.21;50.80;100753.59;466621;113;922840;-76
2022/08/10 00:22:14;;;;;;;8.79;7.98;;;;;;;23.19;50.82;100758.61;466803;113;922511;-76
2022/08/10 00:23:19;;;;;;;8.32;7.59;;;;;;;23.18;50.85;100749.42;466678;113;922523;-77
2022/08/10 00:24:23;;;;;;;8.77;8.07;;;;;;;23.17;50.91;100752.50;458043;116;922581;-76
2022/08/10 00:25:26;;;;;;;8.90;8.15;;;;;;;23.16;50.97;100745.27;466793;113;923348;-76
2022/08/10 00:26:29;;;;;;;9.30;8.48;;;;;;;23.13;51.02;100752.27;466855;113;922528;-76
2022/08/10 00:27:34;;;;;;;9.19;8.33;;;;;;;23.12;51.00;100749.77;463412;113;922586;-75
2022/08/10 00:28:39;;;;;;;9.03;8.28;;;;;;;23.10;51.12;100749.25;446430;118;922590;-76
2022/08/10 00:29:42;;;;;;;9.53;8.64;;;;;;;23.08;51.18;100752.32;464643;113;922749;-77
2022/08/10 00:30:45;;;;;;;9.03;8.32;;;;;;;23.08;51.20;100745.92;454560;115;922564;-75
2022/08/10 00:31:48;;;;;;;8.49;7.79;;;;;;;23.08;51.25;100748.70;457959;116;922572;-75
2022/08/10 00:32:53;;;;;;;9.48;8.66;;;;;;;23.06;51.31;100743.42;466544;113;923050;-75
2022/08/10 00:33:56;;;;;;;10.03;8.97;;;;;;;23.06;51.33;100748.99;468668;112;922540;-75
2022/08/10 00:34:59;;;;;;;9.69;8.70;;;;;;;23.06;51.37;100750.94;471863;112;922634;-75
2022/08/10 00:36:03;;;;;;;9.99;9.08;;;;;;;23.06;51.42;100751.77;471932;112;922567;-75
2022/08/10 00:37:06;;;;;;;9.18;8.56;;;;;;;23.04;51.76;100745.69;468854;112;922630;-75
2022/08/10 00:38:09;;;;;;;9.04;8.28;;;;;;;23.04;51.76;100745.69;466258;113;923047;-75
2022/08/10 00:39:12;;;;;;;9.74;8.56;;;;;;;23.05;51.51;100750.11;466175;113;922611;-75
2022/08/10 00:40:19;;;;;;;8.49;7.73;;;;;;;23.04;51.60;100750.42;466015;113;930507;-75
2022/08/10 00:41:24;;;;;;;9.19;8.46;;;;;;;23.04;51.64;100750.42;463616;113;922988;-75
2022/08/10 00:42:27;;;;;;;8.78;7.97;;;;;;;23.03;51.61;100751.55;466280;113;923383;-75
2022/08/10 00:43:30;;;;;;;8.93;8.16;;;;;;;23.02;51.65;100747.09;458971;115;923432;-75
2022/08/10 00:44:38;;;;;;;9.25;8.51;;;;;;;23.02;51.66;100750.70;459301;113;923171;-76
2022/08/10 00:45:41;;;;;;;9.56;8.66;;;;;;;23.02;51.65;100752.66;466092;113;922731;-76
2022/08/10 00:46:45;;;;;;;10.26;7.99;;;;;;;23.00;51.63;100752.11;466203;113;922601;-75
2022/08/10 00:47:48;;;;;;;9.36;8.49;;;;;;;22.99;51.66;100747.70;458922;115;922602;-75
2022/08/10 00:48:51;;;;;;;9.61;8.73;;;;;;;22.98;51.70;100737.69;459214;113;922674;-75
2022/08/10 00:49:56;;;;;;;9.89;8.99;;;;;;;22.97;51.69;100747.98;465345;113;922961;-75
2022/08/10 00:51:00;;;;;;;9.81;8.98;;;;;;;22.95;51.71;100741.04;466202;113;923159;-75
2022/08/10 00:52:04;;;;;;;10.82;9.91;;;;;;;22.93;51.76;100748.87;466232;113;923332;-75
2022/08/10 00:53:07;;;;;;;9.95;9.04;;;;;;;22.92;51.84;100755.55;466151;113;929759;-75
2022/08/10 00:54:10;;;;;;;10.27;9.21;;;;;;;22.90;51.91;100746.66;466323;113;922769;-75
2022/08/10 00:55:15;;;;;;;9.65;8.69;;;;;;;22.90;52.00;100741.09;463736;113;922625;-75
2022/08/10 00:56:20;;;;;;;11.05;9.97;;;;;;;22.91;51.79;100737.20;466095;113;922532;-75
2022/08/10 00:57:25;;;;;;;11.13;10.33;;;;;;;22.91;51.79;100737.20;463705;113;922521;-75
2022/08/10 00:58:28;;;;;;;11.33;10.33;;;;;;;22.91;52.02;100737.20;466293;113;923076;-75
2022/08/10 00:59:32;;;;;;;10.24;9.28;;;;;;;22.91;51.86;100739.98;466290;113;922572;-75
2022/08/10 01:00:36;;;;;;;10.17;9.41;;;;;;;22.90;51.88;100741.09;466081;113;923040;-75
2022/08/10 01:01:39;;;;;;;10.41;9.56;;;;;;;22.87;51.77;100736.96;466227;113;928811;-75
2022/08/10 01:02:44;;;;;;;11.28;9.33;;;;;;;22.83;51.82;100738.64;463657;113;922916;-74
2022/08/10 01:03:48;;;;;;;11.37;10.34;;;;;;;22.79;51.74;100738.41;466279;113;922631;-75
2022/08/10 01:04:53;;;;;;;10.36;9.50;;;;;;;22.77;51.74;100742.63;463487;113;922525;-75
2022/08/10 01:06:04;;;;;;;10.69;9.81;;;;;;;22.73;51.80;100739.58;463130;113;922938;-75
2022/08/10 01:07:26;;;;;;;11.58;9.36;;;;;;;22.70;51.85;100737.36;462252;114;922794;-74
2022/08/10 01:08:33;;;;;;;10.50;9.51;;;;;;;22.68;51.97;100742.37;463122;114;922549;-74
2022/08/10 01:10:07;;;;;;;10.58;9.14;;;;;;;22.65;52.04;100742.97;462473;114;923394;-75
2022/08/10 01:11:22;;;;;;;9.81;9.02;;;;;;;22.63;52.15;100736.86;463068;113;922574;-75
2022/08/10 01:12:34;;;;;;;9.63;8.82;;;;;;;22.61;52.15;100736.31;460527;114;922988;-75
2022/08/10 01:13:54;;;;;;;10.51;8.91;;;;;;;22.59;52.21;100737.73;460600;114;922592;-75
2022/08/10 01:15:07;;;;;;;10.09;9.01;;;;;;;22.56;52.29;100733.58;463112;114;922570;-75
2022/08/10 01:16:23;;;;;;;10.52;9.65;;;;;;;22.55;52.33;100733.89;463046;114;922896;-74
2022/08/10 01:17:30;;;;;;;9.74;8.88;;;;;;;22.53;52.42;100734.17;463084;114;922563;-75
2022/08/10 01:19:05;;;;;;;11.11;9.61;;;;;;;22.53;52.47;100738.89;459911;114;922958;-74
2022/08/10 01:20:16;;;;;;;9.43;8.48;;;;;;;22.52;52.58;100740.84;463107;114;922864;-75
2022/08/10 01:21:50;;;;;;;9.63;8.95;;;;;;;22.61;52.52;100736.31;504665;105;946878;-74
2022/08/10 01:23:08;;;;;;;11.57;8.97;;;;;;;22.48;52.47;100736.99;494633;107;922533;-74
2022/08/10 01:24:31;;;;;;;9.93;9.03;;;;;;;22.46;52.43;100733.66;495188;107;922861;-74
2022/08/10 01:26:06;;;;;;;9.11;8.23;;;;;;;22.43;52.45;100737.87;495218;107;922493;-74
2022/08/10 01:27:30;;;;;;;9.01;8.14;;;;;;;22.41;52.45;100739.26;495150;107;922992;-74
2022/08/10 01:28:51;;;;;;;9.82;8.79;;;;;;;22.38;52.48;100735.09;495286;107;923042;-74
2022/08/10 01:30:09;;;;;;;9.69;8.79;;;;;;;22.37;52.49;100740.97;490537;107;922937;-74
2022/08/10 01:31:16;;;;;;;9.63;8.85;;;;;;;22.35;52.52;100743.19;494912;107;922555;-74
2022/08/10 01:32:32;;;;;;;9.48;8.62;;;;;;;22.33;52.59;100737.08;495099;107;922505;-74
2022/08/10 01:33:38;;;;;;;9.94;9.09;;;;;;;22.32;52.60;100738.23;494682;107;922615;-74
2022/08/10 01:34:52;;;;;;;9.63;8.73;;;;;;;22.30;52.65;100741.28;482360;109;922508;-74
2022/08/10 01:36:14;;;;;;;9.69;8.82;;;;;;;22.31;52.78;100736.56;485804;109;922630;-74
2022/08/10 01:37:21;;;;;;;10.39;9.39;;;;;;;22.32;52.78;100739.06;485887;109;922817;-74
2022/08/10 01:38:31;;;;;;;11.42;9.34;;;;;;;22.32;52.78;100732.67;485862;109;923045;-74
2022/08/10 01:39:37;;;;;;;10.92;9.70;;;;;;;22.31;52.71;100728.23;485880;109;922551;-74
2022/08/10 01:40:47;;;;;;;9.97;9.06;;;;;;;22.31;52.75;100736.56;485803;109;922467;-74
2022/08/10 01:41:54;;;;;;;10.33;9.42;;;;;;;22.31;52.79;100736.56;485787;109;923035;-74
2022/08/10 01:42:59;;;;;;;10.39;9.34;;;;;;;22.32;52.85;100732.67;475380;111;922632;-74
2022/08/10 01:44:13;;;;;;;10.15;9.28;;;;;;;22.33;52.96;100728.75;475264;109;922589;-74
2022/08/10 01:45:18;;;;;;;10.17;9.26;;;;;;;22.34;52.94;100727.64;485802;109;922567;-75
2022/08/10 01:46:24;;;;;;;10.53;9.58;;;;;;;22.35;52.94;100738.47;485790;109;922942;-74
2022/08/10 01:48:54;;;;;;;10.04;9.14;;;;;;;22.38;52.98;100737.08;485870;109;922676;-74
2022/08/10 01:50:01;;;;;;;10.16;9.13;;;;;;;22.39;52.99;100736.77;485853;109;922607;-74
2022/08/10 01:51:19;;;;;;;10.33;9.38;;;;;;;22.40;52.99;100738.43;485112;109;922626;-74
2022/08/10 01:52:25;;;;;;;10.20;9.09;;;;;;;22.42;52.95;100738.14;485901;109;922593;-74
2022/08/10 01:53:45;;;;;;;9.66;8.87;;;;;;;22.42;52.95;100738.14;485916;109;923136;-74
2022/08/10 01:54:52;;;;;;;22.87;9.32;;;;;;;22.42;52.90;100732.59;485270;109;922538;-74
2022/08/10 01:55:57;;;;;;;10.34;9.17;;;;;;;22.43;52.94;100742.59;485715;109;922630;-74
2022/08/10 01:57:02;;;;;;;10.23;9.33;;;;;;;22.43;52.93;100742.59;486011;109;923010;-74
2022/08/10 01:58:08;;;;;;;9.99;9.15;;;;;;;22.43;52.88;100737.03;485941;109;922727;-74
2022/08/10 01:59:20;;;;;;;10.47;9.47;;;;;;;22.44;52.77;100747.00;485815;109;930284;-74
2022/08/10 02:00:26;;;;;;;9.43;8.71;;;;;;;22.43;52.70;100745.37;485866;109;922987;-74
2022/08/10 02:01:33;;;;;;;10.89;9.94;;;;;;;22.43;52.77;100742.59;485768;109;922514;-74
2022/08/10 02:02:38;;;;;;;15.36;9.69;;;;;;;22.42;52.63;100740.92;485161;109;922497;-74
2022/08/10 02:03:43;;;;;;;10.09;8.95;;;;;;;22.42;52.61;100744.53;485873;109;922409;-74
2022/08/10 02:04:51;;;;;;;11.08;9.98;;;;;;;22.41;52.59;100740.09;482508;109;922589;-74
2022/08/10 02:05:56;;;;;;;10.71;9.89;;;;;;;22.41;52.61;100744.81;495183;107;922988;-74
2022/08/10 02:07:00;;;;;;;11.09;10.05;;;;;;;22.40;52.57;100743.16;495308;107;922486;-74
2022/08/10 02:08:05;;;;;;;11.32;10.32;;;;;;;22.38;52.55;100743.43;495246;107;922459;-74
2022/08/10 02:09:14;;;;;;;10.61;9.72;;;;;;;22.36;52.65;100747.64;495265;107;922572;-74
2022/08/10 02:10:21;;;;;;;11.82;9.75;;;;;;;22.34;52.71;100745.14;495276;107;923003;-74
2022/08/10 02:11:27;;;;;;;13.04;10.99;;;;;;;22.32;52.69;100747.39;495199;107;922495;-74
2022/08/10 02:12:34;;;;;;;11.95;10.37;;;;;;;22.29;52.78;100742.40;493096;107;922909;-74
2022/08/10 02:13:38;;;;;;;10.90;9.80;;;;;;;22.27;52.82;100750.21;495200;107;922908;-74
2022/08/10 02:14:48;;;;;;;12.15;10.94;;;;;;;22.26;52.87;100750.49;495376;107;922525;-74
2022/08/10 02:15:53;;;;;;;11.61;10.62;;;;;;;22.26;52.93;100751.32;486114;109;922574;-76
2022/08/10 02:17:02;;;;;;;11.85;10.57;;;;;;;22.26;53.03;100751.32;474646;111;923339;-76
2022/08/10 02:18:07;;;;;;;10.52;9.58;;;;;;;22.26;53.06;100748.55;475612;109;923170;-76
2022/08/10 02:19:14;;;;;;;10.11;9.17;;;;;;;22.26;53.14;100750.49;486084;109;922635;-75
2022/08/10 02:20:23;;;;;;;11.60;10.42;;;;;;;22.25;53.20;100746.05;485156;109;922924;-75
2022/08/10 02:21:33;;;;;;;10.71;9.71;;;;;;;22.26;53.20;100739.38;482616;109;922569;-76
2022/08/10 02:22:36;;;;;;;9.89;8.74;;;;;;;22.24;53.26;100738.83;479977;110;922550;-76
2022/08/10 02:23:43;;;;;;;9.67;8.79;;;;;;;22.23;53.23;100742.72;480567;110;922554;-75
2022/08/10 02:24:47;;;;;;;9.57;8.78;;;;;;;22.21;53.26;100744.97;480609;110;922673;-76
2022/08/10 02:25:53;;;;;;;10.88;9.26;;;;;;;22.20;53.33;100746.09;480525;110;922555;-76
2022/08/10 02:26:57;;;;;;;10.33;9.40;;;;;;;22.20;53.41;100751.64;480567;110;922611;-76
2022/08/10 02:28:04;;;;;;;10.40;9.31;;;;;;;22.20;53.54;100749.69;480527;110;922552;-76
2022/08/10 02:29:09;;;;;;;10.23;9.32;;;;;;;22.21;53.53;100748.58;480479;110;922854;-76
2022/08/10 02:30:13;;;;;;;9.62;8.71;;;;;;;22.22;53.54;100750.22;493558;106;922602;-76
2022/08/10 02:31:19;;;;;;;8.83;7.96;;;;;;;22.24;53.44;100744.38;486941;108;922887;-76
2022/08/10 02:32:27;;;;;;;9.13;8.29;;;;;;;22.23;53.35;100742.72;486597;109;922992;-76
2022/08/10 02:33:34;;;;;;;9.23;8.41;;;;;;;22.25;53.22;100749.66;483330;109;922618;-76
2022/08/10 02:34:40;;;;;;;9.34;8.26;;;;;;;22.23;53.11;100743.55;477637;111;922581;-76
2022/08/10 02:35:44;;;;;;;8.75;8.15;;;;;;;22.21;52.96;100745.80;477933;111;922537;-76
2022/08/10 02:36:52;;;;;;;8.61;7.87;;;;;;;22.20;52.88;100746.09;476329;111;922687;-75
2022/08/10 02:37:59;;;;;;;8.79;8.09;;;;;;;22.18;52.92;100743.59;477778;111;922553;-75
2022/08/10 02:39:06;;;;;;;8.39;7.51;;;;;;;22.17;52.78;100747.48;477774;111;922794;-76
2022/08/10 02:40:10;;;;;;;8.99;8.07;;;;;;;22.16;52.77;100747.78;477787;111;922590;-76
2022/08/10 02:41:21;;;;;;;8.97;8.06;;;;;;;22.16;52.74;100751.39;474293;111;923007;-75
2022/08/10 02:42:30;;;;;;;9.72;7.06;;;;;;;22.16;52.69;100747.78;474142;111;922517;-75
2022/08/10 02:43:39;;;;;;;8.44;7.67;;;;;;;22.15;52.58;100754.45;473620;111;923005;-75
2022/08/10 02:45:06;;;;;;;9.33;8.16;;;;;;;22.14;52.58;100753.62;473986;111;922913;-75
2022/08/10 02:46:15;;;;;;;8.46;7.74;;;;;;;22.14;52.58;100747.23;466241;113;922792;-76
2022/08/10 02:47:32;;;;;;;9.09;8.36;;;;;;;22.13;52.77;100751.12;459412;115;923000;-76
2022/08/10 02:48:44;;;;;;;9.63;8.82;;;;;;;22.14;52.85;100755.56;456928;115;923023;-76
2022/08/10 02:49:50;;;;;;;9.63;7.84;;;;;;;22.15;52.90;100748.89;459251;115;923013;-76
2022/08/10 02:51:00;;;;;;;8.59;7.89;;;;;;;22.16;52.89;100756.95;469041;113;922876;-75
2022/08/10 02:52:06;;;;;;;9.58;7.97;;;;;;;22.17;52.87;100757.75;458806;115;922613;-75
2022/08/10 02:53:34;;;;;;;8.44;7.69;;;;;;;22.19;52.85;100752.75;469165;111;923078;-75
2022/08/10 02:54:43;;;;;;;8.63;7.87;;;;;;;22.20;52.84;100754.42;474333;111;922893;-75
2022/08/10 02:56:04;;;;;;;8.61;7.74;;;;;;;22.21;52.78;100754.14;476888;111;923040;-75
2022/08/10 02:57:11;;;;;;;9.46;7.81;;;;;;;22.22;52.77;100752.19;477779;111;923035;-75
2022/08/10 02:58:17;;;;;;;8.17;7.56;;;;;;;22.21;52.72;100751.36;476741;111;922835;-75
2022/08/10 02:59:42;;;;;;;8.68;7.98;;;;;;;22.22;52.70;100752.19;477455;111;922823;-75
2022/08/10 03:00:49;;;;;;;9.01;7.77;;;;;;;22.22;52.72;100758.55;477760;111;922521;-75
2022/08/10 03:01:55;;;;;;;9.08;7.89;;;;;;;22.22;52.67;100753.00;477761;111;922586;-75
2022/08/10 03:03:02;;;;;;;7.95;7.35;;;;;;;22.23;52.64;100751.88;479336;109;922829;-75
2022/08/10 03:04:08;;;;;;;8.49;7.71;;;;;;;22.23;52.53;100751.88;486564;109;922539;-75
2022/08/10 03:05:16;;;;;;;7.62;6.96;;;;;;;22.25;52.48;100757.16;486194;109;922528;-75
2022/08/10 03:06:23;;;;;;;7.49;6.89;;;;;;;22.26;52.37;100753.27;485646;109;922988;-75
2022/08/10 03:07:29;;;;;;;7.75;7.18;;;;;;;22.28;52.25;100753.79;485680;109;922529;-75
2022/08/10 03:08:38;;;;;;;7.94;7.32;;;;;;;22.28;52.21;100753.79;482500;109;922500;-75
2022/08/10 03:09:41;;;;;;;8.36;7.63;;;;;;;22.28;52.20;100759.34;485041;109;922539;-75
2022/08/10 03:10:47;;;;;;;7.64;7.05;;;;;;;22.29;52.20;100759.06;485732;109;922498;-75
2022/08/10 03:11:51;;;;;;;7.71;7.07;;;;;;;22.31;52.17;100761.56;485591;109;922477;-75
2022/08/10 03:13:02;;;;;;;8.14;7.22;;;;;;;22.32;52.12;100760.45;475253;111;923455;-75
2022/08/10 03:14:08;;;;;;;9.81;7.46;;;;;;;22.35;51.96;100757.08;471645;112;922684;-75
2022/08/10 03:15:15;;;;;;;8.47;7.71;;;;;;;22.35;51.94;100760.70;467732;113;922641;-75
2022/08/10 03:16:21;;;;;;;8.53;7.69;;;;;;;22.37;51.92;100755.69;467308;113;922648;-75
2022/08/10 03:17:25;;;;;;;9.36;8.36;;;;;;;22.38;51.93;100756.52;471564;112;923285;-76
2022/08/10 03:18:31;;;;;;;9.29;8.59;;;;;;;22.40;51.96;100757.05;471609;112;923240;-76
2022/08/10 03:19:36;;;;;;;8.67;7.84;;;;;;;22.42;51.99;100763.16;471448;112;922522;-76
2022/08/10 03:20:42;;;;;;;9.94;8.57;;;;;;;22.43;51.93;100759.27;468043;112;922855;-76
2022/08/10 03:21:48;;;;;;;9.95;8.35;;;;;;;22.44;51.98;100760.89;475538;110;923128;-76
2022/08/10 03:22:54;;;;;;;9.49;8.53;;;;;;;22.45;52.11;100759.78;479899;110;922984;-76
2022/08/10 03:24:01;;;;;;;9.06;8.24;;;;;;;22.45;52.12;100757.84;495067;107;922556;-76
2022/08/10 03:25:05;;;;;;;9.52;8.68;;;;;;;22.46;52.17;100767.84;495130;107;922961;-76
2022/08/10 03:26:10;;;;;;;9.39;8.65;;;;;;;22.46;52.26;100759.50;495113;107;922614;-76
2022/08/10 03:27:14;;;;;;;10.14;9.22;;;;;;;22.47;52.31;100768.67;495021;107;930541;-75
2022/08/10 03:28:18;;;;;;;9.72;8.89;;;;;;;22.48;52.40;100764.78;495245;107;922591;-76
2022/08/10 03:29:24;;;;;;;10.57;9.33;;;;;;;22.50;52.47;100765.30;495104;107;922586;-76
2022/08/10 03:30:27;;;;;;;10.19;9.37;;;;;;;22.51;52.52;100764.19;497544;104;922815;-76
2022/08/10 03:31:33;;;;;;;9.39;8.61;;;;;;;22.52;52.54;100771.41;494449;107;922532;-75
2022/08/10 03:32:38;;;;;;;11.92;10.21;;;;;;;22.54;52.53;100769.18;494169;107;922679;-76
2022/08/10 03:33:43;;;;;;;10.04;9.09;;;;;;;22.56;52.54;100766.09;493911;107;923202;-76
2022/08/10 03:34:47;;;;;;;10.11;8.88;;;;;;;22.58;52.57;100764.70;485900;109;930553;-76
2022/08/10 03:35:50;;;;;;;10.03;8.96;;;;;;;22.61;52.51;100764.10;486127;109;922804;-75
2022/08/10 03:36:56;;;;;;;15.09;10.72;;;;;;;22.62;52.52;100767.72;482647;109;922965;-76
2022/08/10 03:38:00;;;;;;;11.40;10.29;;;;;;;22.63;52.52;100766.59;486202;109;922591;-76
2022/08/10 03:39:03;;;;;;;10.55;9.68;;;;;;;22.63;52.49;100761.88;486067;109;922818;-74
2022/08/10 03:40:07;;;;;;;11.36;10.40;;;;;;;22.64;52.49;100768.27;486198;109;922522;-76
2022/08/10 03:41:12;;;;;;;11.06;10.14;;;;;;;22.64;52.50;100762.70;486056;109;922492;-76
2022/08/10 03:42:20;;;;;;;11.01;9.93;;;;;;;22.63;52.51;100767.43;485857;109;922965;-76
2022/08/10 03:43:26;;;;;;;11.64;10.61;;;;;;;22.62;52.49;100759.37;486033;109;922604;-75
2022/08/10 03:44:31;;;;;;;10.97;10.08;;;;;;;22.62;52.55;100762.16;485937;109;923232;-76
2022/08/10 03:45:35;;;;;;;11.01;10.03;;;;;;;22.62;52.53;100760.20;485947;109;922571;-76
2022/08/10 03:46:42;;;;;;;11.13;10.11;;;;;;;22.62;52.52;100759.37;482556;109;922490;-76
2022/08/10 03:47:46;;;;;;;10.98;10.09;;;;;;;22.64;52.87;100763.53;475557;111;922556;-76
2022/08/10 03:48:53;;;;;;;11.04;10.08;;;;;;;22.65;52.14;100759.64;476168;109;930632;-76
2022/08/10 03:49:58;;;;;;;11.39;10.37;;;;;;;22.65;52.14;100759.64;485985;109;930492;-76
2022/08/10 03:51:04;;;;;;;12.06;11.02;;;;;;;22.67;52.55;100762.95;485522;109;922886;-76
2022/08/10 03:52:07;;;;;;;11.05;10.15;;;;;;;22.69;52.66;100763.49;486089;109;922530;-75
2022/08/10 03:53:10;;;;;;;13.16;10.19;;;;;;;22.71;52.81;100761.30;486251;109;922537;-76
2022/08/10 03:54:17;;;;;;;11.68;10.67;;;;;;;22.73;52.84;100772.94;482627;109;922700;-76
2022/08/10 03:55:21;;;;;;;11.20;10.15;;;;;;;22.74;52.86;100755.14;486017;109;922556;-76
2022/08/10 03:56:29;;;;;;;12.50;10.56;;;;;;;22.77;52.82;100768.44;482983;109;922621;-76
2022/08/10 03:57:34;;;;;;;11.94;10.84;;;;;;;22.79;52.80;100760.66;485840;109;922545;-76
2022/08/10 03:58:39;;;;;;;11.18;10.26;;;;;;;22.82;52.74;100756.47;482459;109;923041;-75
2022/08/10 03:59:42;;;;;;;11.42;10.54;;;;;;;22.84;52.72;100757.83;491965;107;922587;-75
2022/08/10 04:00:46;;;;;;;11.09;10.00;;;;;;;22.85;52.72;100753.93;495115;107;922796;-75
2022/08/10 04:01:51;;;;;;;10.71;9.52;;;;;;;22.88;52.66;100753.33;495053;107;922575;-75
2022/08/10 04:02:57;;;;;;;9.98;9.21;;;;;;;22.90;52.67;100752.21;491563;107;922693;-75
2022/08/10 04:04:01;;;;;;;10.53;9.57;;;;;;;22.92;52.58;100752.77;495033;107;923113;-75
2022/08/10 04:05:07;;;;;;;10.65;9.50;;;;;;;22.94;52.47;100756.06;491443;107;922489;-75
2022/08/10 04:06:11;;;;;;;11.11;9.88;;;;;;;22.95;52.46;100753.00;494766;107;922920;-75
2022/08/10 04:07:14;;;;;;;10.81;9.79;;;;;;;22.96;52.53;100753.83;494793;107;922570;-75
2022/08/10 04:08:17;;;;;;;15.68;10.14;;;;;;;22.98;52.58;100754.38;494924;107;922814;-75
2022/08/10 04:09:20;;;;;;;11.07;9.86;;;;;;;23.00;52.67;100760.45;494873;107;922566;-75
2022/08/10 04:10:25;;;;;;;10.50;9.58;;;;;;;23.01;52.66;100757.39;494700;107;922553;-76
2022/08/10 04:11:28;;;;;;;9.72;8.85;;;;;;;23.03;52.56;100757.94;494801;107;930666;-76
2022/08/10 04:12:31;;;;;;;10.83;9.89;;;;;;;23.05;52.51;100757.62;494861;107;922573;-76
2022/08/10 04:13:34;;;;;;;11.28;9.29;;;;;;;23.05;52.44;100754.84;494870;107;923105;-76
2022/08/10 04:14:37;;;;;;;10.94;9.97;;;;;;;23.07;52.31;100749.83;484114;109;922526;-76
2022/08/10 04:15:42;;;;;;;9.69;8.64;;;;;;;23.07;52.26;100750.66;473088;109;922644;-76
2022/08/10 04:16:45;;;;;;;10.53;9.71;;;;;;;23.08;52.18;100757.05;486159;109;922931;-76
2022/08/10 04:17:48;;;;;;;9.44;8.66;;;;;;;23.08;52.05;100751.48;486169;109;922579;-76
2022/08/10 04:18:53;;;;;;;11.36;9.10;;;;;;;23.10;52.09;100752.03;485423;109;922598;-76
2022/08/10 04:19:57;;;;;;;8.97;8.23;;;;;;;23.11;52.04;100750.89;486207;109;922538;-75
2022/08/10 04:21:04;;;;;;;11.03;9.52;;;;;;;23.12;52.02;100752.55;485987;107;922807;-76
2022/08/10 04:22:13;;;;;;;10.16;9.31;;;;;;;23.13;52.05;100746.70;465675;113;922859;-76
2022/08/10 04:23:20;;;;;;;9.30;8.40;;;;;;;23.17;52.05;100749.71;485352;109;922630;-76
2022/08/10 04:24:26;;;;;;;9.31;8.50;;;;;;;23.18;51.95;100749.42;485925;109;923063;-76
2022/08/10 04:25:31;;;;;;;10.92;9.12;;;;;;;23.20;51.92;100749.14;485223;109;922608;-76
2022/08/10 04:26:35;;;;;;;10.05;9.25;;;;;;;23.21;51.79;100748.83;486080;109;922532;-75
2022/08/10 04:27:38;;;;;;;10.11;9.21;;;;;;;23.23;51.68;100751.32;486145;109;922576;-76
2022/08/10 04:28:42;;;;;;;9.41;8.59;;;;;;;23.25;51.60;100751.87;486149;109;922598;-76
2022/08/10 04:29:46;;;;;;;9.88;9.03;;;;;;;23.26;51.51;100747.97;492485;104;922545;-75
2022/08/10 04:30:51;;;;;;;11.89;9.09;;;;;;;23.28;51.40;100746.53;498961;104;923116;-75
2022/08/10 04:31:54;;;;;;;9.81;7.94;;;;;;;23.30;51.49;100749.03;495042;107;922667;-75
2022/08/10 04:33:00;;;;;;;10.36;9.29;;;;;;;23.31;51.40;100745.13;495260;107;922557;-75
2022/08/10 04:34:04;;;;;;;10.18;9.20;;;;;;;23.33;51.31;100747.59;490649;107;922560;-75
2022/08/10 04:35:12;;;;;;;10.12;8.77;;;;;;;23.33;51.26;100742.86;485776;109;923032;-75
2022/08/10 04:36:19;;;;;;;9.99;9.16;;;;;;;23.34;51.16;100747.30;485837;109;923066;-75
2022/08/10 04:37:23;;;;;;;11.98;9.42;;;;;;;23.36;51.22;100750.62;485944;109;922569;-75
2022/08/10 04:38:29;;;;;;;14.25;8.90;;;;;;;23.40;51.30;100748.07;486016;109;922571;-76
2022/08/10 04:39:32;;;;;;;10.11;9.10;;;;;;;23.41;51.29;100753.35;485929;109;922880;-74
2022/08/10 04:40:36;;;;;;;10.65;9.69;;;;;;;23.44;51.32;100757.48;486005;109;922563;-75
2022/08/10 04:41:40;;;;;;;10.44;9.55;;;;;;;23.46;51.31;100753.32;486028;109;923389;-75
2022/08/10 04:42:46;;;;;;;10.06;9.15;;;;;;;23.48;51.28;100750.25;485126;109;922617;-76
2022/08/10 04:43:49;;;;;;;9.56;8.78;;;;;;;23.50;51.19;100757.16;486024;109;922846;-75
2022/08/10 04:44:54;;;;;;;8.31;7.61;;;;;;;23.51;51.17;100749.64;486168;109;922784;-76
2022/08/10 04:45:57;;;;;;;8.01;7.39;;;;;;;23.54;51.07;100744.30;486004;109;922623;-75
2022/08/10 04:47:01;;;;;;;8.75;8.04;;;;;;;23.56;50.91;100753.20;486024;109;930541;-75
2022/08/10 04:48:04;;;;;;;8.79;7.96;;;;;;;23.58;50.77;100742.61;486175;109;922970;-75
2022/08/10 04:49:09;;;;;;;9.12;7.25;;;;;;;23.60;50.59;100743.12;482492;109;922708;-75
2022/08/10 04:50:14;;;;;;;7.49;6.80;;;;;;;23.62;50.47;100746.44;482613;109;922871;-76
2022/08/10 04:51:21;;;;;;;8.13;7.45;;;;;;;23.64;50.35;100743.38;485106;109;922793;-75
2022/08/10 04:52:24;;;;;;;8.29;7.58;;;;;;;23.66;50.24;100741.09;486210;109;922553;-75
2022/08/10 04:53:27;;;;;;;8.21;7.45;;;;;;;23.68;50.14;100756.39;486172;109;922582;-75
2022/08/10 04:54:30;;;;;;;7.61;6.87;;;;;;;23.71;50.08;100745.80;486205;109;922570;-75
2022/08/10 04:55:33;;;;;;;8.29;7.36;;;;;;;23.73;50.02;100737.95;488532;107;922477;-75
2022/08/10 04:56:38;;;;;;;7.76;7.03;;;;;;;23.76;50.02;100734.59;495294;107;922576;-76
2022/08/10 04:57:41;;;;;;;7.64;6.48;;;;;;;23.77;49.93;100722.30;495165;107;922532;-75
2022/08/10 04:58:44;;;;;;;10.52;7.49;;;;;;;23.80;49.77;100735.64;495278;107;923044;-75
2022/08/10 04:59:47;;;;;;;7.66;6.87;;;;;;;23.81;49.54;100738.14;495289;107;922546;-76
2022/08/10 05:00:50;;;;;;;7.56;6.87;;;;;;;23.84;49.43;100747.83;495275;107;922535;-75
2022/08/10 05:01:53;;;;;;;9.21;7.19;;;;;;;23.85;49.29;100743.92;495278;107;922569;-75
2022/08/10 05:02:58;;;;;;;8.56;7.55;;;;;;;23.87;49.21;100750.84;494738;107;922624;-75
2022/08/10 05:04:01;;;;;;;7.75;7.05;;;;;;;23.90;49.26;100749.42;495310;107;922849;-75
2022/08/10 05:05:07;;;;;;;7.90;7.21;;;;;;;23.92;49.26;100742.44;494728;107;922493;-75
2022/08/10 05:06:11;;;;;;;8.33;6.81;;;;;;;23.94;49.30;100739.33;484171;109;922567;-75